sensor_id;sensor_type;location;lat;lon;timestamp;P1;durP1;ratioP1;P2;durP2;ratioP2
13891;SDS011;7016;48.172;8.058;2023-04-24T00:02:22;2.13;;;0.80;;
13891;SDS011;7016;48.172;8.058;2023-04-24T00:04:49;2.47;;;0.88;;
13891;SDS011;7016;48.172;8.058;2023-04-24T00:07:14;4.10;;;1.02;;
13891;SDS011;7016;48.172;8.058;2023-04-24T00:09:42;3.50;;;0.90;;
13891;SDS011;7016;48.172;8.058;2023-04-24T00:12:08;3.53;;;0.98;;
13891;SDS011;7016;48.172;8.058;2023-04-24T00:14:34;5.20;;;1.00;;
13891;SDS011;7016;48.172;8.058;2023-04-24T00:17:00;3.90;;;1.10;;
13891;SDS011;7016;48.172;8.058;2023-04-24T00:19:27;2.25;;;0.80;;
13891;SDS011;7016;48.172;8.058;2023-04-24T00:21:54;6.03;;;1.00;;
13891;SDS011;7016;48.172;8.058;2023-04-24T00:24:20;2.45;;;0.82;;
13891;SDS011;7016;48.172;8.058;2023-04-24T00:26:46;1.13;;;0.60;;
13891;SDS011;7016;48.172;8.058;2023-04-24T00:29:12;2.25;;;1.00;;
13891;SDS011;7016;48.172;8.058;2023-04-24T00:31:37;2.83;;;1.00;;
13891;SDS011;7016;48.172;8.058;2023-04-24T00:34:03;2.60;;;0.80;;
13891;SDS011;7016;48.172;8.058;2023-04-24T00:36:29;2.63;;;0.88;;
13891;SDS011;7016;48.172;8.058;2023-04-24T00:38:56;3.35;;;0.90;;
13891;SDS011;7016;48.172;8.058;2023-04-24T00:41:22;2.25;;;0.88;;
13891;SDS011;7016;48.172;8.058;2023-04-24T00:43:50;2.78;;;0.70;;
13891;SDS011;7016;48.172;8.058;2023-04-24T00:46:16;3.50;;;0.80;;
13891;SDS011;7016;48.172;8.058;2023-04-24T00:48:43;2.70;;;0.73;;
13891;SDS011;7016;48.172;8.058;2023-04-24T00:51:08;4.38;;;0.98;;
13891;SDS011;7016;48.172;8.058;2023-04-24T00:53:34;3.10;;;0.70;;
13891;SDS011;7016;48.172;8.058;2023-04-24T00:56:00;2.88;;;0.68;;
13891;SDS011;7016;48.172;8.058;2023-04-24T00:58:27;2.83;;;1.10;;
13891;SDS011;7016;48.172;8.058;2023-04-24T01:00:53;2.53;;;0.80;;
13891;SDS011;7016;48.172;8.058;2023-04-24T01:03:21;1.95;;;0.70;;
13891;SDS011;7016;48.172;8.058;2023-04-24T01:05:49;1.70;;;0.75;;
13891;SDS011;7016;48.172;8.058;2023-04-24T01:08:15;2.20;;;0.90;;
13891;SDS011;7016;48.172;8.058;2023-04-24T01:10:41;2.53;;;0.60;;
13891;SDS011;7016;48.172;8.058;2023-04-24T01:13:08;4.25;;;1.15;;
13891;SDS011;7016;48.172;8.058;2023-04-24T01:15:34;4.32;;;1.30;;
13891;SDS011;7016;48.172;8.058;2023-04-24T01:18:00;6.72;;;1.50;;
13891;SDS011;7016;48.172;8.058;2023-04-24T01:20:26;3.95;;;0.85;;
13891;SDS011;7016;48.172;8.058;2023-04-24T01:22:54;3.17;;;0.73;;
13891;SDS011;7016;48.172;8.058;2023-04-24T01:25:21;1.75;;;0.80;;
13891;SDS011;7016;48.172;8.058;2023-04-24T01:27:47;2.00;;;0.68;;
13891;SDS011;7016;48.172;8.058;2023-04-24T01:30:13;2.42;;;0.70;;
13891;SDS011;7016;48.172;8.058;2023-04-24T01:32:40;2.45;;;0.63;;
13891;SDS011;7016;48.172;8.058;2023-04-24T01:35:09;2.20;;;0.80;;
13891;SDS011;7016;48.172;8.058;2023-04-24T01:37:35;3.15;;;0.85;;
13891;SDS011;7016;48.172;8.058;2023-04-24T01:40:05;2.15;;;0.80;;
13891;SDS011;7016;48.172;8.058;2023-04-24T01:42:32;2.45;;;0.75;;
13891;SDS011;7016;48.172;8.058;2023-04-24T01:44:59;2.17;;;0.95;;
13891;SDS011;7016;48.172;8.058;2023-04-24T01:47:26;2.30;;;0.80;;
13891;SDS011;7016;48.172;8.058;2023-04-24T01:49:53;2.50;;;0.90;;
13891;SDS011;7016;48.172;8.058;2023-04-24T01:52:18;1.52;;;0.80;;
13891;SDS011;7016;48.172;8.058;2023-04-24T01:54:44;1.83;;;0.80;;
13891;SDS011;7016;48.172;8.058;2023-04-24T01:57:10;3.53;;;0.80;;
13891;SDS011;7016;48.172;8.058;2023-04-24T01:59:36;2.15;;;0.85;;
13891;SDS011;7016;48.172;8.058;2023-04-24T02:02:02;4.10;;;1.13;;
13891;SDS011;7016;48.172;8.058;2023-04-24T02:04:28;2.78;;;0.88;;
13891;SDS011;7016;48.172;8.058;2023-04-24T02:06:54;3.05;;;0.73;;
13891;SDS011;7016;48.172;8.058;2023-04-24T02:09:20;1.42;;;0.90;;
13891;SDS011;7016;48.172;8.058;2023-04-24T02:11:46;2.88;;;1.13;;
13891;SDS011;7016;48.172;8.058;2023-04-24T02:14:11;4.38;;;1.05;;
13891;SDS011;7016;48.172;8.058;2023-04-24T02:16:37;3.13;;;0.90;;
13891;SDS011;7016;48.172;8.058;2023-04-24T02:19:03;3.72;;;0.90;;
13891;SDS011;7016;48.172;8.058;2023-04-24T02:21:29;3.35;;;1.17;;
13891;SDS011;7016;48.172;8.058;2023-04-24T02:23:56;5.00;;;1.20;;
13891;SDS011;7016;48.172;8.058;2023-04-24T02:26:22;4.05;;;1.33;;
13891;SDS011;7016;48.172;8.058;2023-04-24T02:28:48;3.00;;;0.93;;
13891;SDS011;7016;48.172;8.058;2023-04-24T02:31:13;2.47;;;0.90;;
13891;SDS011;7016;48.172;8.058;2023-04-24T02:33:39;5.07;;;1.05;;
13891;SDS011;7016;48.172;8.058;2023-04-24T02:36:05;3.80;;;1.00;;
13891;SDS011;7016;48.172;8.058;2023-04-24T02:38:31;2.42;;;1.05;;
13891;SDS011;7016;48.172;8.058;2023-04-24T02:40:57;3.00;;;0.90;;
13891;SDS011;7016;48.172;8.058;2023-04-24T02:43:24;7.22;;;1.45;;
13891;SDS011;7016;48.172;8.058;2023-04-24T02:45:57;4.15;;;0.93;;
13891;SDS011;7016;48.172;8.058;2023-04-24T02:48:22;4.72;;;1.27;;
13891;SDS011;7016;48.172;8.058;2023-04-24T02:50:48;4.15;;;1.10;;
13891;SDS011;7016;48.172;8.058;2023-04-24T02:53:15;4.13;;;1.13;;
13891;SDS011;7016;48.172;8.058;2023-04-24T02:55:41;4.28;;;0.90;;
13891;SDS011;7016;48.172;8.058;2023-04-24T02:58:06;2.78;;;0.80;;
13891;SDS011;7016;48.172;8.058;2023-04-24T03:00:32;5.15;;;1.00;;
13891;SDS011;7016;48.172;8.058;2023-04-24T03:02:58;3.50;;;1.08;;
13891;SDS011;7016;48.172;8.058;2023-04-24T03:05:23;4.65;;;1.17;;
13891;SDS011;7016;48.172;8.058;2023-04-24T03:07:49;3.78;;;1.17;;
13891;SDS011;7016;48.172;8.058;2023-04-24T03:10:15;4.88;;;1.10;;
13891;SDS011;7016;48.172;8.058;2023-04-24T03:12:40;7.25;;;1.55;;
13891;SDS011;7016;48.172;8.058;2023-04-24T03:15:06;3.25;;;0.98;;
13891;SDS011;7016;48.172;8.058;2023-04-24T03:17:32;4.50;;;1.20;;
13891;SDS011;7016;48.172;8.058;2023-04-24T03:19:58;3.92;;;1.00;;
13891;SDS011;7016;48.172;8.058;2023-04-24T03:22:24;3.80;;;1.02;;
13891;SDS011;7016;48.172;8.058;2023-04-24T03:24:49;3.92;;;1.20;;
13891;SDS011;7016;48.172;8.058;2023-04-24T03:27:15;4.10;;;1.17;;
13891;SDS011;7016;48.172;8.058;2023-04-24T03:29:41;3.55;;;1.00;;
13891;SDS011;7016;48.172;8.058;2023-04-24T03:32:06;3.67;;;0.90;;
13891;SDS011;7016;48.172;8.058;2023-04-24T03:34:32;4.07;;;0.90;;
13891;SDS011;7016;48.172;8.058;2023-04-24T03:36:57;2.65;;;0.98;;
13891;SDS011;7016;48.172;8.058;2023-04-24T03:39:23;3.10;;;0.95;;
13891;SDS011;7016;48.172;8.058;2023-04-24T03:41:50;1.52;;;0.70;;
13891;SDS011;7016;48.172;8.058;2023-04-24T03:44:15;2.28;;;1.15;;
13891;SDS011;7016;48.172;8.058;2023-04-24T03:46:41;3.28;;;1.00;;
13891;SDS011;7016;48.172;8.058;2023-04-24T03:49:07;4.38;;;0.77;;
13891;SDS011;7016;48.172;8.058;2023-04-24T03:51:32;5.70;;;0.90;;
13891;SDS011;7016;48.172;8.058;2023-04-24T03:53:58;7.53;;;1.50;;
13891;SDS011;7016;48.172;8.058;2023-04-24T03:56:24;5.15;;;1.30;;
13891;SDS011;7016;48.172;8.058;2023-04-24T03:58:49;3.42;;;1.50;;
13891;SDS011;7016;48.172;8.058;2023-04-24T04:01:15;4.68;;;2.03;;
13891;SDS011;7016;48.172;8.058;2023-04-24T04:03:41;3.80;;;1.80;;
13891;SDS011;7016;48.172;8.058;2023-04-24T04:06:06;6.05;;;1.90;;
13891;SDS011;7016;48.172;8.058;2023-04-24T04:08:32;3.67;;;1.70;;
13891;SDS011;7016;48.172;8.058;2023-04-24T04:10:58;3.78;;;2.17;;
13891;SDS011;7016;48.172;8.058;2023-04-24T04:13:24;4.18;;;2.08;;
13891;SDS011;7016;48.172;8.058;2023-04-24T04:15:49;6.80;;;2.45;;
13891;SDS011;7016;48.172;8.058;2023-04-24T04:18:15;4.28;;;2.20;;
13891;SDS011;7016;48.172;8.058;2023-04-24T04:20:41;13.50;;;3.85;;
13891;SDS011;7016;48.172;8.058;2023-04-24T04:23:07;8.30;;;3.30;;
13891;SDS011;7016;48.172;8.058;2023-04-24T04:25:32;5.32;;;2.33;;
13891;SDS011;7016;48.172;8.058;2023-04-24T04:27:58;9.45;;;3.47;;
13891;SDS011;7016;48.172;8.058;2023-04-24T04:30:24;6.30;;;2.50;;
13891;SDS011;7016;48.172;8.058;2023-04-24T04:32:51;6.38;;;2.28;;
13891;SDS011;7016;48.172;8.058;2023-04-24T04:35:16;4.22;;;2.20;;
13891;SDS011;7016;48.172;8.058;2023-04-24T04:37:42;6.22;;;2.10;;
13891;SDS011;7016;48.172;8.058;2023-04-24T04:40:08;4.03;;;2.08;;
13891;SDS011;7016;48.172;8.058;2023-04-24T04:42:37;2.75;;;1.73;;
13891;SDS011;7016;48.172;8.058;2023-04-24T04:45:09;3.55;;;1.48;;
13891;SDS011;7016;48.172;8.058;2023-04-24T04:47:35;5.60;;;2.22;;
13891;SDS011;7016;48.172;8.058;2023-04-24T04:50:01;7.03;;;2.40;;
13891;SDS011;7016;48.172;8.058;2023-04-24T04:52:28;7.20;;;1.65;;
13891;SDS011;7016;48.172;8.058;2023-04-24T04:54:55;4.45;;;2.38;;
13891;SDS011;7016;48.172;8.058;2023-04-24T04:57:20;3.28;;;1.70;;
13891;SDS011;7016;48.172;8.058;2023-04-24T04:59:46;4.97;;;2.08;;
13891;SDS011;7016;48.172;8.058;2023-04-24T05:02:12;9.32;;;1.50;;
13891;SDS011;7016;48.172;8.058;2023-04-24T05:04:38;3.45;;;1.40;;
13891;SDS011;7016;48.172;8.058;2023-04-24T05:07:03;4.45;;;1.65;;
13891;SDS011;7016;48.172;8.058;2023-04-24T05:09:29;5.85;;;1.77;;
13891;SDS011;7016;48.172;8.058;2023-04-24T05:11:55;6.10;;;3.20;;
13891;SDS011;7016;48.172;8.058;2023-04-24T05:14:21;5.15;;;1.90;;
13891;SDS011;7016;48.172;8.058;2023-04-24T05:16:47;3.97;;;2.00;;
13891;SDS011;7016;48.172;8.058;2023-04-24T05:19:13;6.00;;;2.20;;
13891;SDS011;7016;48.172;8.058;2023-04-24T05:21:40;3.28;;;1.60;;
13891;SDS011;7016;48.172;8.058;2023-04-24T05:24:06;3.47;;;1.50;;
13891;SDS011;7016;48.172;8.058;2023-04-24T05:26:32;2.25;;;1.55;;
13891;SDS011;7016;48.172;8.058;2023-04-24T05:28:58;5.70;;;1.92;;
13891;SDS011;7016;48.172;8.058;2023-04-24T05:31:24;5.75;;;2.30;;
13891;SDS011;7016;48.172;8.058;2023-04-24T05:33:50;2.10;;;1.48;;
13891;SDS011;7016;48.172;8.058;2023-04-24T05:36:16;4.68;;;1.80;;
13891;SDS011;7016;48.172;8.058;2023-04-24T05:38:41;4.22;;;1.90;;
13891;SDS011;7016;48.172;8.058;2023-04-24T05:41:07;4.30;;;2.03;;
13891;SDS011;7016;48.172;8.058;2023-04-24T05:43:33;4.32;;;1.83;;
13891;SDS011;7016;48.172;8.058;2023-04-24T05:45:58;3.33;;;1.73;;
13891;SDS011;7016;48.172;8.058;2023-04-24T05:48:24;3.88;;;2.20;;
13891;SDS011;7016;48.172;8.058;2023-04-24T05:50:50;7.88;;;2.05;;
13891;SDS011;7016;48.172;8.058;2023-04-24T05:53:17;3.85;;;1.80;;
13891;SDS011;7016;48.172;8.058;2023-04-24T05:55:43;4.93;;;2.28;;
13891;SDS011;7016;48.172;8.058;2023-04-24T05:58:09;4.75;;;2.03;;
13891;SDS011;7016;48.172;8.058;2023-04-24T06:00:36;6.80;;;2.33;;
13891;SDS011;7016;48.172;8.058;2023-04-24T06:03:01;4.15;;;2.17;;
13891;SDS011;7016;48.172;8.058;2023-04-24T06:05:28;8.40;;;2.42;;
13891;SDS011;7016;48.172;8.058;2023-04-24T06:07:55;7.68;;;3.42;;
13891;SDS011;7016;48.172;8.058;2023-04-24T06:10:21;7.72;;;2.53;;
13891;SDS011;7016;48.172;8.058;2023-04-24T06:12:46;4.93;;;2.38;;
13891;SDS011;7016;48.172;8.058;2023-04-24T06:15:12;7.28;;;2.58;;
13891;SDS011;7016;48.172;8.058;2023-04-24T06:17:38;8.23;;;3.08;;
13891;SDS011;7016;48.172;8.058;2023-04-24T06:20:04;7.38;;;3.35;;
13891;SDS011;7016;48.172;8.058;2023-04-24T06:22:31;10.15;;;3.20;;
13891;SDS011;7016;48.172;8.058;2023-04-24T06:24:57;9.55;;;3.03;;
13891;SDS011;7016;48.172;8.058;2023-04-24T06:27:23;5.60;;;3.03;;
13891;SDS011;7016;48.172;8.058;2023-04-24T06:29:48;5.65;;;2.90;;
13891;SDS011;7016;48.172;8.058;2023-04-24T06:32:21;7.32;;;3.13;;
13891;SDS011;7016;48.172;8.058;2023-04-24T06:34:52;6.28;;;3.00;;
13891;SDS011;7016;48.172;8.058;2023-04-24T06:37:18;6.85;;;3.17;;
13891;SDS011;7016;48.172;8.058;2023-04-24T06:39:47;7.72;;;2.55;;
13891;SDS011;7016;48.172;8.058;2023-04-24T06:42:13;4.88;;;2.40;;
13891;SDS011;7016;48.172;8.058;2023-04-24T06:44:39;4.80;;;2.50;;
13891;SDS011;7016;48.172;8.058;2023-04-24T06:47:08;3.53;;;1.80;;
13891;SDS011;7016;48.172;8.058;2023-04-24T06:49:38;3.50;;;2.00;;
13891;SDS011;7016;48.172;8.058;2023-04-24T06:52:05;5.68;;;2.80;;
13891;SDS011;7016;48.172;8.058;2023-04-24T06:54:31;5.25;;;2.88;;
13891;SDS011;7016;48.172;8.058;2023-04-24T06:56:57;6.28;;;3.13;;
13891;SDS011;7016;48.172;8.058;2023-04-24T06:59:25;5.53;;;3.13;;
13891;SDS011;7016;48.172;8.058;2023-04-24T07:01:52;7.03;;;2.80;;
13891;SDS011;7016;48.172;8.058;2023-04-24T07:04:18;6.78;;;3.22;;
13891;SDS011;7016;48.172;8.058;2023-04-24T07:06:44;6.68;;;3.35;;
13891;SDS011;7016;48.172;8.058;2023-04-24T07:09:11;6.13;;;3.30;;
13891;SDS011;7016;48.172;8.058;2023-04-24T07:11:38;5.22;;;3.08;;
13891;SDS011;7016;48.172;8.058;2023-04-24T07:14:05;5.25;;;3.70;;
13891;SDS011;7016;48.172;8.058;2023-04-24T07:16:31;8.73;;;4.03;;
13891;SDS011;7016;48.172;8.058;2023-04-24T07:18:59;8.45;;;3.80;;
13891;SDS011;7016;48.172;8.058;2023-04-24T07:21:25;9.30;;;3.90;;
13891;SDS011;7016;48.172;8.058;2023-04-24T07:23:52;7.72;;;3.72;;
13891;SDS011;7016;48.172;8.058;2023-04-24T07:26:17;7.75;;;3.80;;
13891;SDS011;7016;48.172;8.058;2023-04-24T07:28:43;5.93;;;3.03;;
13891;SDS011;7016;48.172;8.058;2023-04-24T07:31:10;8.45;;;4.22;;
13891;SDS011;7016;48.172;8.058;2023-04-24T07:33:36;6.35;;;3.42;;
13891;SDS011;7016;48.172;8.058;2023-04-24T07:36:02;6.85;;;3.45;;
13891;SDS011;7016;48.172;8.058;2023-04-24T07:38:31;6.75;;;3.50;;
13891;SDS011;7016;48.172;8.058;2023-04-24T07:41:00;6.88;;;3.63;;
13891;SDS011;7016;48.172;8.058;2023-04-24T07:43:32;10.40;;;3.20;;
13891;SDS011;7016;48.172;8.058;2023-04-24T07:45:59;7.07;;;3.78;;
13891;SDS011;7016;48.172;8.058;2023-04-24T07:48:25;6.05;;;3.28;;
13891;SDS011;7016;48.172;8.058;2023-04-24T07:50:51;12.77;;;3.90;;
13891;SDS011;7016;48.172;8.058;2023-04-24T07:53:17;9.57;;;3.33;;
13891;SDS011;7016;48.172;8.058;2023-04-24T07:55:43;7.07;;;3.67;;
13891;SDS011;7016;48.172;8.058;2023-04-24T07:58:09;5.57;;;3.10;;
13891;SDS011;7016;48.172;8.058;2023-04-24T08:00:34;11.32;;;3.55;;
13891;SDS011;7016;48.172;8.058;2023-04-24T08:03:00;4.40;;;3.17;;
13891;SDS011;7016;48.172;8.058;2023-04-24T08:05:26;4.80;;;2.90;;
13891;SDS011;7016;48.172;8.058;2023-04-24T08:07:53;8.75;;;3.30;;
13891;SDS011;7016;48.172;8.058;2023-04-24T08:10:20;4.82;;;3.13;;
13891;SDS011;7016;48.172;8.058;2023-04-24T08:12:49;8.23;;;3.15;;
13891;SDS011;7016;48.172;8.058;2023-04-24T08:15:15;6.05;;;2.70;;
13891;SDS011;7016;48.172;8.058;2023-04-24T08:17:41;4.90;;;2.10;;
13891;SDS011;7016;48.172;8.058;2023-04-24T08:20:07;5.15;;;2.50;;
13891;SDS011;7016;48.172;8.058;2023-04-24T08:22:38;7.82;;;2.25;;
13891;SDS011;7016;48.172;8.058;2023-04-24T08:25:05;5.82;;;2.35;;
13891;SDS011;7016;48.172;8.058;2023-04-24T08:27:32;6.07;;;2.30;;
13891;SDS011;7016;48.172;8.058;2023-04-24T08:29:58;6.90;;;2.47;;
13891;SDS011;7016;48.172;8.058;2023-04-24T08:32:26;3.25;;;1.95;;
13891;SDS011;7016;48.172;8.058;2023-04-24T08:34:54;8.50;;;2.17;;
13891;SDS011;7016;48.172;8.058;2023-04-24T08:37:23;4.97;;;1.88;;
13891;SDS011;7016;48.172;8.058;2023-04-24T08:39:50;6.47;;;2.33;;
13891;SDS011;7016;48.172;8.058;2023-04-24T08:42:19;7.93;;;2.40;;
13891;SDS011;7016;48.172;8.058;2023-04-24T08:44:46;5.47;;;2.10;;
13891;SDS011;7016;48.172;8.058;2023-04-24T08:47:13;4.63;;;2.30;;
13891;SDS011;7016;48.172;8.058;2023-04-24T08:49:40;5.07;;;2.33;;
13891;SDS011;7016;48.172;8.058;2023-04-24T08:52:06;6.47;;;2.33;;
13891;SDS011;7016;48.172;8.058;2023-04-24T08:54:35;6.18;;;2.80;;
13891;SDS011;7016;48.172;8.058;2023-04-24T08:57:01;7.20;;;2.67;;
13891;SDS011;7016;48.172;8.058;2023-04-24T08:59:28;9.45;;;2.25;;
13891;SDS011;7016;48.172;8.058;2023-04-24T09:01:55;3.20;;;1.90;;
13891;SDS011;7016;48.172;8.058;2023-04-24T09:04:21;4.20;;;2.00;;
13891;SDS011;7016;48.172;8.058;2023-04-24T09:06:50;7.63;;;2.38;;
13891;SDS011;7016;48.172;8.058;2023-04-24T09:09:17;5.82;;;2.13;;
13891;SDS011;7016;48.172;8.058;2023-04-24T09:11:43;5.45;;;1.85;;
13891;SDS011;7016;48.172;8.058;2023-04-24T09:14:10;3.97;;;2.10;;
13891;SDS011;7016;48.172;8.058;2023-04-24T09:16:36;7.18;;;2.10;;
13891;SDS011;7016;48.172;8.058;2023-04-24T09:19:02;8.07;;;2.38;;
13891;SDS011;7016;48.172;8.058;2023-04-24T09:21:32;6.43;;;2.05;;
13891;SDS011;7016;48.172;8.058;2023-04-24T09:23:59;6.95;;;2.60;;
13891;SDS011;7016;48.172;8.058;2023-04-24T09:26:29;7.00;;;2.67;;
13891;SDS011;7016;48.172;8.058;2023-04-24T09:28:56;6.28;;;2.42;;
13891;SDS011;7016;48.172;8.058;2023-04-24T09:31:22;8.80;;;2.80;;
13891;SDS011;7016;48.172;8.058;2023-04-24T09:34:00;5.30;;;2.63;;
13891;SDS011;7016;48.172;8.058;2023-04-24T09:38:57;3.67;;;1.63;;
13891;SDS011;7016;48.172;8.058;2023-04-24T09:41:27;7.20;;;2.00;;
13891;SDS011;7016;48.172;8.058;2023-04-24T09:43:56;4.75;;;1.95;;
13891;SDS011;7016;48.172;8.058;2023-04-24T09:46:30;7.00;;;2.00;;
13891;SDS011;7016;48.172;8.058;2023-04-24T09:49:05;5.05;;;1.73;;
13891;SDS011;7016;48.172;8.058;2023-04-24T09:51:34;5.50;;;1.77;;
13891;SDS011;7016;48.172;8.058;2023-04-24T09:54:04;5.00;;;2.00;;
13891;SDS011;7016;48.172;8.058;2023-04-24T09:56:47;11.63;;;3.28;;
13891;SDS011;7016;48.172;8.058;2023-04-24T09:59:15;11.50;;;3.30;;
13891;SDS011;7016;48.172;8.058;2023-04-24T10:01:42;12.43;;;2.60;;
13891;SDS011;7016;48.172;8.058;2023-04-24T10:04:16;4.78;;;1.65;;
13891;SDS011;7016;48.172;8.058;2023-04-24T10:06:46;5.13;;;1.70;;
13891;SDS011;7016;48.172;8.058;2023-04-24T10:09:15;4.32;;;2.10;;
13891;SDS011;7016;48.172;8.058;2023-04-24T10:11:47;3.03;;;1.40;;
13891;SDS011;7016;48.172;8.058;2023-04-24T10:14:14;4.45;;;1.73;;
13891;SDS011;7016;48.172;8.058;2023-04-24T10:16:41;4.50;;;1.77;;
13891;SDS011;7016;48.172;8.058;2023-04-24T10:19:08;4.80;;;1.05;;
13891;SDS011;7016;48.172;8.058;2023-04-24T10:21:34;2.58;;;1.25;;
13891;SDS011;7016;48.172;8.058;2023-04-24T10:24:00;2.10;;;1.02;;
13891;SDS011;7016;48.172;8.058;2023-04-24T10:26:28;3.05;;;1.10;;
13891;SDS011;7016;48.172;8.058;2023-04-24T10:28:54;4.45;;;1.17;;
13891;SDS011;7016;48.172;8.058;2023-04-24T10:31:23;5.43;;;1.25;;
13891;SDS011;7016;48.172;8.058;2023-04-24T10:33:49;4.78;;;1.20;;
13891;SDS011;7016;48.172;8.058;2023-04-24T10:36:16;2.28;;;0.90;;
13891;SDS011;7016;48.172;8.058;2023-04-24T10:38:43;4.68;;;1.10;;
13891;SDS011;7016;48.172;8.058;2023-04-24T10:41:12;4.30;;;1.13;;
13891;SDS011;7016;48.172;8.058;2023-04-24T10:43:44;2.85;;;1.30;;
13891;SDS011;7016;48.172;8.058;2023-04-24T10:46:10;4.18;;;1.27;;
13891;SDS011;7016;48.172;8.058;2023-04-24T10:48:51;3.30;;;1.23;;
13891;SDS011;7016;48.172;8.058;2023-04-24T10:51:21;2.33;;;0.98;;
13891;SDS011;7016;48.172;8.058;2023-04-24T10:53:47;5.32;;;1.23;;
13891;SDS011;7016;48.172;8.058;2023-04-24T10:56:15;3.83;;;1.50;;
13891;SDS011;7016;48.172;8.058;2023-04-24T10:58:42;2.45;;;1.00;;
13891;SDS011;7016;48.172;8.058;2023-04-24T11:01:23;3.63;;;1.10;;
13891;SDS011;7016;48.172;8.058;2023-04-24T11:03:59;3.20;;;1.13;;
13891;SDS011;7016;48.172;8.058;2023-04-24T11:06:30;3.25;;;1.60;;
13891;SDS011;7016;48.172;8.058;2023-04-24T11:09:06;4.38;;;1.60;;
13891;SDS011;7016;48.172;8.058;2023-04-24T11:11:34;3.22;;;1.48;;
13891;SDS011;7016;48.172;8.058;2023-04-24T11:14:02;2.45;;;1.20;;
13891;SDS011;7016;48.172;8.058;2023-04-24T11:19:25;3.13;;;1.38;;
13891;SDS011;7016;48.172;8.058;2023-04-24T11:22:03;8.95;;;1.65;;
13891;SDS011;7016;48.172;8.058;2023-04-24T11:24:39;2.60;;;1.05;;
13891;SDS011;7016;48.172;8.058;2023-04-24T11:27:15;6.72;;;3.15;;
13891;SDS011;7016;48.172;8.058;2023-04-24T11:34:51;3.40;;;1.15;;
13891;SDS011;7016;48.172;8.058;2023-04-24T11:37:26;3.08;;;1.10;;
13891;SDS011;7016;48.172;8.058;2023-04-24T11:39:57;2.28;;;0.80;;
13891;SDS011;7016;48.172;8.058;2023-04-24T11:42:23;2.50;;;1.02;;
13891;SDS011;7016;48.172;8.058;2023-04-24T11:44:53;3.55;;;0.90;;
13891;SDS011;7016;48.172;8.058;2023-04-24T11:47:28;4.43;;;1.58;;
13891;SDS011;7016;48.172;8.058;2023-04-24T11:49:55;2.95;;;1.25;;
13891;SDS011;7016;48.172;8.058;2023-04-24T11:52:21;16.27;;;8.75;;
13891;SDS011;7016;48.172;8.058;2023-04-24T11:54:49;5.05;;;3.03;;
13891;SDS011;7016;48.172;8.058;2023-04-24T11:57:16;4.63;;;1.40;;
13891;SDS011;7016;48.172;8.058;2023-04-24T11:59:43;3.50;;;1.05;;
13891;SDS011;7016;48.172;8.058;2023-04-24T12:02:19;4.45;;;1.27;;
13891;SDS011;7016;48.172;8.058;2023-04-24T12:04:52;2.53;;;1.10;;
13891;SDS011;7016;48.172;8.058;2023-04-24T12:07:19;3.65;;;1.00;;
13891;SDS011;7016;48.172;8.058;2023-04-24T12:09:46;1.65;;;0.80;;
13891;SDS011;7016;48.172;8.058;2023-04-24T12:12:13;2.17;;;0.98;;
13891;SDS011;7016;48.172;8.058;2023-04-24T12:17:09;3.53;;;1.10;;
13891;SDS011;7016;48.172;8.058;2023-04-24T12:19:35;2.78;;;1.08;;
13891;SDS011;7016;48.172;8.058;2023-04-24T12:22:01;1.48;;;1.05;;
13891;SDS011;7016;48.172;8.058;2023-04-24T12:24:28;4.10;;;1.02;;
13891;SDS011;7016;48.172;8.058;2023-04-24T12:26:56;3.38;;;1.17;;
13891;SDS011;7016;48.172;8.058;2023-04-24T12:29:23;3.47;;;1.27;;
13891;SDS011;7016;48.172;8.058;2023-04-24T12:31:49;2.00;;;1.10;;
13891;SDS011;7016;48.172;8.058;2023-04-24T12:34:25;5.30;;;0.98;;
13891;SDS011;7016;48.172;8.058;2023-04-24T12:36:51;3.53;;;1.23;;
13891;SDS011;7016;48.172;8.058;2023-04-24T12:39:17;3.33;;;1.27;;
13891;SDS011;7016;48.172;8.058;2023-04-24T12:42:25;2.00;;;1.00;;
13891;SDS011;7016;48.172;8.058;2023-04-24T12:44:36;2.95;;;1.38;;
13891;SDS011;7016;48.172;8.058;2023-04-24T12:47:02;2.50;;;1.30;;
13891;SDS011;7016;48.172;8.058;2023-04-24T12:49:31;3.38;;;1.50;;
13891;SDS011;7016;48.172;8.058;2023-04-24T12:51:57;2.85;;;1.48;;
13891;SDS011;7016;48.172;8.058;2023-04-24T12:54:23;4.35;;;1.42;;
13891;SDS011;7016;48.172;8.058;2023-04-24T12:56:49;5.93;;;1.88;;
13891;SDS011;7016;48.172;8.058;2023-04-24T12:59:15;4.15;;;1.58;;
13891;SDS011;7016;48.172;8.058;2023-04-24T13:01:41;6.70;;;1.98;;
13891;SDS011;7016;48.172;8.058;2023-04-24T13:04:06;15.38;;;4.82;;
13891;SDS011;7016;48.172;8.058;2023-04-24T13:06:32;7.38;;;2.95;;
13891;SDS011;7016;48.172;8.058;2023-04-24T13:08:58;12.98;;;3.88;;
13891;SDS011;7016;48.172;8.058;2023-04-24T13:11:24;4.45;;;2.17;;
13891;SDS011;7016;48.172;8.058;2023-04-24T13:13:50;5.07;;;1.60;;
13891;SDS011;7016;48.172;8.058;2023-04-24T13:16:15;5.90;;;1.98;;
13891;SDS011;7016;48.172;8.058;2023-04-24T13:18:41;4.57;;;1.70;;
13891;SDS011;7016;48.172;8.058;2023-04-24T13:21:07;3.97;;;1.60;;
13891;SDS011;7016;48.172;8.058;2023-04-24T13:23:32;6.38;;;1.52;;
13891;SDS011;7016;48.172;8.058;2023-04-24T13:25:58;4.47;;;2.08;;
13891;SDS011;7016;48.172;8.058;2023-04-24T13:28:24;3.42;;;2.00;;
13891;SDS011;7016;48.172;8.058;2023-04-24T13:30:50;6.97;;;3.22;;
13891;SDS011;7016;48.172;8.058;2023-04-24T13:33:16;7.03;;;3.28;;
13891;SDS011;7016;48.172;8.058;2023-04-24T13:35:42;7.38;;;4.20;;
13891;SDS011;7016;48.172;8.058;2023-04-24T13:38:07;5.22;;;2.20;;
13891;SDS011;7016;48.172;8.058;2023-04-24T13:40:33;4.97;;;2.10;;
13891;SDS011;7016;48.172;8.058;2023-04-24T13:42:59;3.13;;;1.70;;
13891;SDS011;7016;48.172;8.058;2023-04-24T13:45:25;6.10;;;1.88;;
13891;SDS011;7016;48.172;8.058;2023-04-24T13:47:51;4.25;;;1.80;;
13891;SDS011;7016;48.172;8.058;2023-04-24T13:50:18;3.53;;;1.45;;
13891;SDS011;7016;48.172;8.058;2023-04-24T13:52:44;3.20;;;1.40;;
13891;SDS011;7016;48.172;8.058;2023-04-24T13:55:10;5.75;;;1.40;;
13891;SDS011;7016;48.172;8.058;2023-04-24T13:57:35;3.90;;;1.27;;
13891;SDS011;7016;48.172;8.058;2023-04-24T14:00:01;1.70;;;1.20;;
13891;SDS011;7016;48.172;8.058;2023-04-24T14:02:29;2.63;;;1.20;;
13891;SDS011;7016;48.172;8.058;2023-04-24T14:04:54;2.03;;;1.20;;
13891;SDS011;7016;48.172;8.058;2023-04-24T14:07:20;2.58;;;1.33;;
13891;SDS011;7016;48.172;8.058;2023-04-24T14:09:46;2.30;;;1.38;;
13891;SDS011;7016;48.172;8.058;2023-04-24T14:12:12;1.25;;;1.10;;
13891;SDS011;7016;48.172;8.058;2023-04-24T14:14:39;2.22;;;1.45;;
13891;SDS011;7016;48.172;8.058;2023-04-24T14:17:05;1.90;;;1.23;;
13891;SDS011;7016;48.172;8.058;2023-04-24T14:19:30;2.55;;;1.10;;
13891;SDS011;7016;48.172;8.058;2023-04-24T14:21:56;3.63;;;1.30;;
13891;SDS011;7016;48.172;8.058;2023-04-24T14:24:23;3.00;;;1.33;;
13891;SDS011;7016;48.172;8.058;2023-04-24T14:26:49;2.28;;;1.42;;
13891;SDS011;7016;48.172;8.058;2023-04-24T14:29:15;2.80;;;1.77;;
13891;SDS011;7016;48.172;8.058;2023-04-24T14:31:41;2.08;;;1.17;;
13891;SDS011;7016;48.172;8.058;2023-04-24T14:34:08;1.77;;;1.50;;
13891;SDS011;7016;48.172;8.058;2023-04-24T14:36:34;2.20;;;1.30;;
13891;SDS011;7016;48.172;8.058;2023-04-24T14:39:00;3.10;;;1.30;;
13891;SDS011;7016;48.172;8.058;2023-04-24T14:41:30;3.05;;;1.38;;
13891;SDS011;7016;48.172;8.058;2023-04-24T14:43:56;2.05;;;1.10;;
13891;SDS011;7016;48.172;8.058;2023-04-24T14:46:22;3.55;;;1.25;;
13891;SDS011;7016;48.172;8.058;2023-04-24T14:48:48;2.05;;;1.30;;
13891;SDS011;7016;48.172;8.058;2023-04-24T14:51:13;2.35;;;1.30;;
13891;SDS011;7016;48.172;8.058;2023-04-24T14:53:39;3.20;;;1.27;;
13891;SDS011;7016;48.172;8.058;2023-04-24T14:56:05;2.67;;;1.45;;
13891;SDS011;7016;48.172;8.058;2023-04-24T14:58:31;3.25;;;1.30;;
13891;SDS011;7016;48.172;8.058;2023-04-24T15:00:57;5.00;;;1.48;;
13891;SDS011;7016;48.172;8.058;2023-04-24T15:03:22;5.47;;;2.50;;
13891;SDS011;7016;48.172;8.058;2023-04-24T15:05:48;3.60;;;1.55;;
13891;SDS011;7016;48.172;8.058;2023-04-24T15:08:15;8.20;;;2.20;;
13891;SDS011;7016;48.172;8.058;2023-04-24T15:10:40;5.03;;;1.90;;
13891;SDS011;7016;48.172;8.058;2023-04-24T15:13:06;5.00;;;1.55;;